sensor_id;sensor_type;location;lat;lon;timestamp;temperature;humidity
29345;DHT22;16339;48.748;2.222;2022-11-15T00:01:41;14.50;79.90
29345;DHT22;16339;48.748;2.222;2022-11-15T00:04:10;14.50;79.70
29345;DHT22;16339;48.748;2.222;2022-11-15T00:06:38;14.50;79.80
29345;DHT22;16339;48.748;2.222;2022-11-15T00:09:07;14.40;79.70
29345;DHT22;16339;48.748;2.222;2022-11-15T00:11:45;14.40;79.70
29345;DHT22;16339;48.748;2.222;2022-11-15T00:14:17;14.40;79.60
29345;DHT22;16339;48.748;2.222;2022-11-15T00:16:47;14.40;79.40
29345;DHT22;16339;48.748;2.222;2022-11-15T00:19:16;14.30;79.10
29345;DHT22;16339;48.748;2.222;2022-11-15T00:21:45;14.30;79.30
29345;DHT22;16339;48.748;2.222;2022-11-15T00:24:14;14.30;79.20
29345;DHT22;16339;48.748;2.222;2022-11-15T00:26:43;14.20;79.30
29345;DHT22;16339;48.748;2.222;2022-11-15T00:29:24;14.20;79.10
29345;DHT22;16339;48.748;2.222;2022-11-15T00:31:56;14.20;79.20
29345;DHT22;16339;48.748;2.222;2022-11-15T00:34:24;14.20;79.10
29345;DHT22;16339;48.748;2.222;2022-11-15T00:36:53;14.20;79.10
29345;DHT22;16339;48.748;2.222;2022-11-15T00:39:22;14.20;79.00
29345;DHT22;16339;48.748;2.222;2022-11-15T00:41:53;14.20;79.00
29345;DHT22;16339;48.748;2.222;2022-11-15T00:44:25;14.20;79.00
29345;DHT22;16339;48.748;2.222;2022-11-15T00:46:53;14.20;79.00
29345;DHT22;16339;48.748;2.222;2022-11-15T00:49:22;14.20;78.90
29345;DHT22;16339;48.748;2.222;2022-11-15T00:51:53;14.20;78.60
29345;DHT22;16339;48.748;2.222;2022-11-15T00:54:21;14.20;78.70
29345;DHT22;16339;48.748;2.222;2022-11-15T00:56:50;14.20;78.70
29345;DHT22;16339;48.748;2.222;2022-11-15T00:59:19;14.10;78.50
29345;DHT22;16339;48.748;2.222;2022-11-15T01:01:51;14.10;78.40
29345;DHT22;16339;48.748;2.222;2022-11-15T01:04:21;14.10;78.40
29345;DHT22;16339;48.748;2.222;2022-11-15T01:06:50;14.10;78.40
29345;DHT22;16339;48.748;2.222;2022-11-15T01:09:19;14.10;78.40
29345;DHT22;16339;48.748;2.222;2022-11-15T01:11:50;14.10;78.30
29345;DHT22;16339;48.748;2.222;2022-11-15T01:14:21;14.10;78.30
29345;DHT22;16339;48.748;2.222;2022-11-15T01:16:52;14.20;78.40
29345;DHT22;16339;48.748;2.222;2022-11-15T01:19:55;14.10;78.00
29345;DHT22;16339;48.748;2.222;2022-11-15T01:22:19;14.10;78.00
29345;DHT22;16339;48.748;2.222;2022-11-15T01:24:49;14.10;78.00
29345;DHT22;16339;48.748;2.222;2022-11-15T01:27:27;14.10;78.00
29345;DHT22;16339;48.748;2.222;2022-11-15T01:29:55;14.10;77.80
29345;DHT22;16339;48.748;2.222;2022-11-15T01:32:27;14.10;77.70
29345;DHT22;16339;48.748;2.222;2022-11-15T01:34:55;14.10;77.60
29345;DHT22;16339;48.748;2.222;2022-11-15T01:37:32;14.10;77.60
29345;DHT22;16339;48.748;2.222;2022-11-15T01:40:01;14.00;77.20
29345;DHT22;16339;48.748;2.222;2022-11-15T01:42:31;14.00;77.20
29345;DHT22;16339;48.748;2.222;2022-11-15T01:45:01;14.00;78.00
29345;DHT22;16339;48.748;2.222;2022-11-15T01:47:39;14.00;77.00
29345;DHT22;16339;48.748;2.222;2022-11-15T01:50:16;13.90;76.90
29345;DHT22;16339;48.748;2.222;2022-11-15T01:52:46;13.90;77.00
29345;DHT22;16339;48.748;2.222;2022-11-15T01:55:20;13.90;77.00
29345;DHT22;16339;48.748;2.222;2022-11-15T01:57:52;13.90;77.20
29345;DHT22;16339;48.748;2.222;2022-11-15T02:00:22;13.90;76.90
29345;DHT22;16339;48.748;2.222;2022-11-15T02:02:56;13.80;76.70
29345;DHT22;16339;48.748;2.222;2022-11-15T02:05:30;13.80;76.70
29345;DHT22;16339;48.748;2.222;2022-11-15T02:08:02;13.80;76.70
29345;DHT22;16339;48.748;2.222;2022-11-15T02:10:34;13.80;76.70
29345;DHT22;16339;48.748;2.222;2022-11-15T02:13:04;13.70;76.60
29345;DHT22;16339;48.748;2.222;2022-11-15T02:15:49;13.70;76.60
29345;DHT22;16339;48.748;2.222;2022-11-15T02:18:26;13.70;76.60
29345;DHT22;16339;48.748;2.222;2022-11-15T02:21:15;13.70;76.40
29345;DHT22;16339;48.748;2.222;2022-11-15T02:24:07;13.70;76.40
29345;DHT22;16339;48.748;2.222;2022-11-15T02:27:17;13.60;77.10
29345;DHT22;16339;48.748;2.222;2022-11-15T02:30:22;13.60;76.20
29345;DHT22;16339;48.748;2.222;2022-11-15T02:32:58;13.60;76.70
29345;DHT22;16339;48.748;2.222;2022-11-15T02:35:37;13.60;75.80
29345;DHT22;16339;48.748;2.222;2022-11-15T02:38:14;13.60;75.90
29345;DHT22;16339;48.748;2.222;2022-11-15T02:40:51;13.60;75.80
29345;DHT22;16339;48.748;2.222;2022-11-15T02:43:25;13.60;75.80
29345;DHT22;16339;48.748;2.222;2022-11-15T02:46:17;13.60;75.70
29345;DHT22;16339;48.748;2.222;2022-11-15T02:48:57;13.60;75.70
29345;DHT22;16339;48.748;2.222;2022-11-15T02:51:28;13.60;75.70
29345;DHT22;16339;48.748;2.222;2022-11-15T02:53:56;13.60;75.50
29345;DHT22;16339;48.748;2.222;2022-11-15T02:56:25;13.60;75.50
29345;DHT22;16339;48.748;2.222;2022-11-15T02:59:22;13.60;75.60
29345;DHT22;16339;48.748;2.222;2022-11-15T03:02:04;13.60;75.70
29345;DHT22;16339;48.748;2.222;2022-11-15T03:04:43;13.60;75.60
29345;DHT22;16339;48.748;2.222;2022-11-15T03:07:15;13.60;75.50
29345;DHT22;16339;48.748;2.222;2022-11-15T03:09:51;13.60;75.40
29345;DHT22;16339;48.748;2.222;2022-11-15T03:12:27;13.70;75.50
29345;DHT22;16339;48.748;2.222;2022-11-15T03:15:01;13.70;75.50
29345;DHT22;16339;48.748;2.222;2022-11-15T03:17:41;13.70;75.50
29345;DHT22;16339;48.748;2.222;2022-11-15T03:20:14;13.70;76.30
29345;DHT22;16339;48.748;2.222;2022-11-15T03:22:47;13.70;75.30
29345;DHT22;16339;48.748;2.222;2022-11-15T03:25:22;13.70;75.30
29345;DHT22;16339;48.748;2.222;2022-11-15T03:27:54;13.70;75.30
29345;DHT22;16339;48.748;2.222;2022-11-15T03:30:24;13.70;75.30
29345;DHT22;16339;48.748;2.222;2022-11-15T03:33:02;13.70;75.30
29345;DHT22;16339;48.748;2.222;2022-11-15T03:35:35;13.60;75.30
29345;DHT22;16339;48.748;2.222;2022-11-15T03:38:09;13.70;75.40
29345;DHT22;16339;48.748;2.222;2022-11-15T03:40:45;13.60;75.20
29345;DHT22;16339;48.748;2.222;2022-11-15T03:43:22;13.60;75.10
29345;DHT22;16339;48.748;2.222;2022-11-15T03:45:56;13.50;75.20
29345;DHT22;16339;48.748;2.222;2022-11-15T03:48:34;13.60;75.20
29345;DHT22;16339;48.748;2.222;2022-11-15T03:51:06;13.50;75.30
29345;DHT22;16339;48.748;2.222;2022-11-15T03:53:35;13.60;75.30
29345;DHT22;16339;48.748;2.222;2022-11-15T03:56:04;13.60;75.30
29345;DHT22;16339;48.748;2.222;2022-11-15T03:58:35;13.50;75.10
29345;DHT22;16339;48.748;2.222;2022-11-15T04:01:04;13.50;75.10
29345;DHT22;16339;48.748;2.222;2022-11-15T04:03:35;13.40;75.20
29345;DHT22;16339;48.748;2.222;2022-11-15T04:06:04;13.40;75.20
29345;DHT22;16339;48.748;2.222;2022-11-15T04:08:43;13.40;75.20
29345;DHT22;16339;48.748;2.222;2022-11-15T04:11:12;13.40;75.20
29345;DHT22;16339;48.748;2.222;2022-11-15T04:13:41;13.40;75.20
29345;DHT22;16339;48.748;2.222;2022-11-15T04:16:10;13.40;75.20
29345;DHT22;16339;48.748;2.222;2022-11-15T04:18:43;13.40;75.10
29345;DHT22;16339;48.748;2.222;2022-11-15T04:21:33;13.40;75.20
29345;DHT22;16339;48.748;2.222;2022-11-15T04:24:16;13.40;75.20
29345;DHT22;16339;48.748;2.222;2022-11-15T04:26:45;13.30;75.00
29345;DHT22;16339;48.748;2.222;2022-11-15T04:29:15;13.30;75.00
29345;DHT22;16339;48.748;2.222;2022-11-15T04:31:56;13.30;75.00
29345;DHT22;16339;48.748;2.222;2022-11-15T04:34:28;13.30;74.90
29345;DHT22;16339;48.748;2.222;2022-11-15T04:36:56;13.20;75.00
29345;DHT22;16339;48.748;2.222;2022-11-15T04:39:38;13.30;75.00
29345;DHT22;16339;48.748;2.222;2022-11-15T04:42:08;13.20;74.90
29345;DHT22;16339;48.748;2.222;2022-11-15T04:44:40;13.20;74.90
29345;DHT22;16339;48.748;2.222;2022-11-15T04:47:09;13.20;74.90
29345;DHT22;16339;48.748;2.222;2022-11-15T04:49:40;13.20;74.80
29345;DHT22;16339;48.748;2.222;2022-11-15T04:52:12;13.10;74.60
29345;DHT22;16339;48.748;2.222;2022-11-15T04:54:42;13.10;74.40
29345;DHT22;16339;48.748;2.222;2022-11-15T04:57:12;13.00;74.30
29345;DHT22;16339;48.748;2.222;2022-11-15T04:59:42;13.00;74.40
29345;DHT22;16339;48.748;2.222;2022-11-15T05:02:11;13.00;74.50
29345;DHT22;16339;48.748;2.222;2022-11-15T05:04:43;13.00;74.60
29345;DHT22;16339;48.748;2.222;2022-11-15T05:07:09;13.00;75.00
29345;DHT22;16339;48.748;2.222;2022-11-15T05:09:42;13.00;74.40
29345;DHT22;16339;48.748;2.222;2022-11-15T05:12:11;12.90;74.30
29345;DHT22;16339;48.748;2.222;2022-11-15T05:14:40;13.00;74.40
29345;DHT22;16339;48.748;2.222;2022-11-15T05:17:09;12.90;75.20
29345;DHT22;16339;48.748;2.222;2022-11-15T05:19:38;13.00;74.40
29345;DHT22;16339;48.748;2.222;2022-11-15T05:22:12;13.00;74.50
29345;DHT22;16339;48.748;2.222;2022-11-15T05:24:41;13.00;74.60
29345;DHT22;16339;48.748;2.222;2022-11-15T05:27:10;13.00;74.70
29345;DHT22;16339;48.748;2.222;2022-11-15T05:29:38;13.00;74.70
29345;DHT22;16339;48.748;2.222;2022-11-15T05:32:09;13.10;74.90
29345;DHT22;16339;48.748;2.222;2022-11-15T05:34:38;13.10;74.90
29345;DHT22;16339;48.748;2.222;2022-11-15T05:37:07;13.10;74.90
29345;DHT22;16339;48.748;2.222;2022-11-15T05:39:38;13.20;75.10
29345;DHT22;16339;48.748;2.222;2022-11-15T05:42:09;13.20;75.20
29345;DHT22;16339;48.748;2.222;2022-11-15T05:44:40;13.20;75.40
29345;DHT22;16339;48.748;2.222;2022-11-15T05:47:12;13.20;75.60
29345;DHT22;16339;48.748;2.222;2022-11-15T05:49:41;13.30;75.80
29345;DHT22;16339;48.748;2.222;2022-11-15T05:52:13;13.40;76.00
29345;DHT22;16339;48.748;2.222;2022-11-15T05:54:46;13.40;75.90
29345;DHT22;16339;48.748;2.222;2022-11-15T05:57:15;13.40;76.00
29345;DHT22;16339;48.748;2.222;2022-11-15T05:59:44;13.40;76.10
29345;DHT22;16339;48.748;2.222;2022-11-15T06:02:12;13.50;76.30
29345;DHT22;16339;48.748;2.222;2022-11-15T06:04:41;13.50;76.50
29345;DHT22;16339;48.748;2.222;2022-11-15T06:07:10;13.50;76.60
29345;DHT22;16339;48.748;2.222;2022-11-15T06:09:38;13.50;76.60
29345;DHT22;16339;48.748;2.222;2022-11-15T06:12:14;13.50;76.60
29345;DHT22;16339;48.748;2.222;2022-11-15T06:14:42;13.50;76.70
29345;DHT22;16339;48.748;2.222;2022-11-15T06:17:11;13.50;76.70
29345;DHT22;16339;48.748;2.222;2022-11-15T06:19:40;13.60;76.80
29345;DHT22;16339;48.748;2.222;2022-11-15T06:22:08;13.60;76.80
29345;DHT22;16339;48.748;2.222;2022-11-15T06:24:39;13.60;77.00
29345;DHT22;16339;48.748;2.222;2022-11-15T06:27:13;13.60;76.90
29345;DHT22;16339;48.748;2.222;2022-11-15T06:29:42;13.60;76.90
29345;DHT22;16339;48.748;2.222;2022-11-15T06:32:10;13.60;77.00
29345;DHT22;16339;48.748;2.222;2022-11-15T06:34:39;13.60;77.20
29345;DHT22;16339;48.748;2.222;2022-11-15T06:37:08;13.60;77.30
29345;DHT22;16339;48.748;2.222;2022-11-15T06:39:38;13.60;77.30
29345;DHT22;16339;48.748;2.222;2022-11-15T06:42:08;13.60;77.30
29345;DHT22;16339;48.748;2.222;2022-11-15T06:44:40;13.50;77.30
29345;DHT22;16339;48.748;2.222;2022-11-15T06:47:08;13.60;77.50
29345;DHT22;16339;48.748;2.222;2022-11-15T06:49:37;13.50;77.50
29345;DHT22;16339;48.748;2.222;2022-11-15T06:52:06;13.60;77.70
29345;DHT22;16339;48.748;2.222;2022-11-15T06:54:34;13.50;77.60
29345;DHT22;16339;48.748;2.222;2022-11-15T06:57:04;13.60;77.70
29345;DHT22;16339;48.748;2.222;2022-11-15T06:59:33;13.50;77.70
29345;DHT22;16339;48.748;2.222;2022-11-15T07:02:04;13.50;77.70
29345;DHT22;16339;48.748;2.222;2022-11-15T07:04:34;13.50;77.90
29345;DHT22;16339;48.748;2.222;2022-11-15T07:07:03;13.50;78.60
29345;DHT22;16339;48.748;2.222;2022-11-15T07:09:32;13.50;77.90
29345;DHT22;16339;48.748;2.222;2022-11-15T07:12:00;13.50;78.10
29345;DHT22;16339;48.748;2.222;2022-11-15T07:14:29;13.50;78.10
29345;DHT22;16339;48.748;2.222;2022-11-15T07:16:58;13.50;78.20
29345;DHT22;16339;48.748;2.222;2022-11-15T07:19:29;13.50;78.40
29345;DHT22;16339;48.748;2.222;2022-11-15T07:21:58;13.40;78.50
29345;DHT22;16339;48.748;2.222;2022-11-15T07:24:26;13.40;78.50
29345;DHT22;16339;48.748;2.222;2022-11-15T07:26:55;13.50;78.60
29345;DHT22;16339;48.748;2.222;2022-11-15T07:29:24;13.50;78.60
29345;DHT22;16339;48.748;2.222;2022-11-15T07:31:52;13.50;78.70
29345;DHT22;16339;48.748;2.222;2022-11-15T07:34:21;13.50;78.70
29345;DHT22;16339;48.748;2.222;2022-11-15T07:36:53;13.50;78.80
29345;DHT22;16339;48.748;2.222;2022-11-15T07:39:21;13.50;78.90
29345;DHT22;16339;48.748;2.222;2022-11-15T07:41:50;13.60;79.10
29345;DHT22;16339;48.748;2.222;2022-11-15T07:44:39;13.60;79.10
29345;DHT22;16339;48.748;2.222;2022-11-15T07:47:07;13.60;78.90
29345;DHT22;16339;48.748;2.222;2022-11-15T07:49:36;13.60;79.10
29345;DHT22;16339;48.748;2.222;2022-11-15T07:52:07;13.70;79.10
29345;DHT22;16339;48.748;2.222;2022-11-15T07:54:36;13.70;79.10
29345;DHT22;16339;48.748;2.222;2022-11-15T07:57:05;13.80;79.10
29345;DHT22;16339;48.748;2.222;2022-11-15T07:59:34;13.80;79.40
29345;DHT22;16339;48.748;2.222;2022-11-15T08:02:03;13.80;79.10
29345;DHT22;16339;48.748;2.222;2022-11-15T08:04:32;13.80;79.10
29345;DHT22;16339;48.748;2.222;2022-11-15T08:07:00;13.90;79.10
29345;DHT22;16339;48.748;2.222;2022-11-15T08:09:32;13.80;79.10
29345;DHT22;16339;48.748;2.222;2022-11-15T08:12:00;13.90;79.10
29345;DHT22;16339;48.748;2.222;2022-11-15T08:14:29;13.90;79.10
29345;DHT22;16339;48.748;2.222;2022-11-15T08:16:58;13.90;79.20
29345;DHT22;16339;48.748;2.222;2022-11-15T08:19:26;14.00;79.30
29345;DHT22;16339;48.748;2.222;2022-11-15T08:21:55;14.00;79.30
29345;DHT22;16339;48.748;2.222;2022-11-15T08:24:26;14.00;79.30
29345;DHT22;16339;48.748;2.222;2022-11-15T08:26:57;14.10;79.30
29345;DHT22;16339;48.748;2.222;2022-11-15T08:29:26;14.10;79.20
29345;DHT22;16339;48.748;2.222;2022-11-15T08:31:55;14.10;79.30
29345;DHT22;16339;48.748;2.222;2022-11-15T08:34:24;14.10;79.40
29345;DHT22;16339;48.748;2.222;2022-11-15T08:36:52;14.20;79.30
29345;DHT22;16339;48.748;2.222;2022-11-15T08:39:21;14.20;79.30
29345;DHT22;16339;48.748;2.222;2022-11-15T08:41:50;14.30;79.30
29345;DHT22;16339;48.748;2.222;2022-11-15T08:44:21;14.30;79.20
29345;DHT22;16339;48.748;2.222;2022-11-15T08:46:50;14.30;79.10
29345;DHT22;16339;48.748;2.222;2022-11-15T08:49:18;14.40;79.10
29345;DHT22;16339;48.748;2.222;2022-11-15T08:51:47;14.40;78.90
29345;DHT22;16339;48.748;2.222;2022-11-15T08:54:17;14.40;78.70
29345;DHT22;16339;48.748;2.222;2022-11-15T08:56:45;14.40;78.80
29345;DHT22;16339;48.748;2.222;2022-11-15T08:59:14;14.50;78.70
29345;DHT22;16339;48.748;2.222;2022-11-15T09:01:46;14.50;78.70
29345;DHT22;16339;48.748;2.222;2022-11-15T09:04:15;14.50;79.00
29345;DHT22;16339;48.748;2.222;2022-11-15T09:06:46;14.50;78.40
29345;DHT22;16339;48.748;2.222;2022-11-15T09:09:14;14.50;78.30
29345;DHT22;16339;48.748;2.222;2022-11-15T09:11:43;14.50;78.40
29345;DHT22;16339;48.748;2.222;2022-11-15T09:14:13;14.50;78.40
29345;DHT22;16339;48.748;2.222;2022-11-15T09:16:42;14.40;78.10
29345;DHT22;16339;48.748;2.222;2022-11-15T09:19:13;14.40;78.20
29345;DHT22;16339;48.748;2.222;2022-11-15T09:21:42;14.40;78.20
29345;DHT22;16339;48.748;2.222;2022-11-15T09:24:10;14.40;78.30
29345;DHT22;16339;48.748;2.222;2022-11-15T09:26:39;14.50;78.30
29345;DHT22;16339;48.748;2.222;2022-11-15T09:29:08;14.50;78.30
29345;DHT22;16339;48.748;2.222;2022-11-15T09:31:36;14.50;77.70
29345;DHT22;16339;48.748;2.222;2022-11-15T09:34:05;14.50;77.70
29345;DHT22;16339;48.748;2.222;2022-11-15T09:36:36;14.60;77.40
29345;DHT22;16339;48.748;2.222;2022-11-15T09:39:05;14.60;77.40
29345;DHT22;16339;48.748;2.222;2022-11-15T09:41:59;14.60;77.30
29345;DHT22;16339;48.748;2.222;2022-11-15T09:44:56;14.60;77.40
29345;DHT22;16339;48.748;2.222;2022-11-15T09:47:49;14.60;77.80
29345;DHT22;16339;48.748;2.222;2022-11-15T09:50:34;14.60;77.90
29345;DHT22;16339;48.748;2.222;2022-11-15T09:53:10;14.60;78.00
29345;DHT22;16339;48.748;2.222;2022-11-15T09:55:47;14.50;78.40
29345;DHT22;16339;48.748;2.222;2022-11-15T09:58:25;14.50;78.90
29345;DHT22;16339;48.748;2.222;2022-11-15T10:00:58;14.50;79.00
29345;DHT22;16339;48.748;2.222;2022-11-15T10:03:33;14.60;79.10
29345;DHT22;16339;48.748;2.222;2022-11-15T10:06:04;14.60;79.20
29345;DHT22;16339;48.748;2.222;2022-11-15T10:08:50;14.60;79.50
29345;DHT22;16339;48.748;2.222;2022-11-15T10:11:21;14.70;79.80
29345;DHT22;16339;48.748;2.222;2022-11-15T10:13:53;14.70;79.80
29345;DHT22;16339;48.748;2.222;2022-11-15T10:19:30;14.80;80.20
29345;DHT22;16339;48.748;2.222;2022-11-15T10:22:23;14.90;80.20
29345;DHT22;16339;48.748;2.222;2022-11-15T10:25:03;14.90;80.20
29345;DHT22;16339;48.748;2.222;2022-11-15T10:27:39;14.90;80.00
29345;DHT22;16339;48.748;2.222;2022-11-15T10:30:14;15.00;80.20
29345;DHT22;16339;48.748;2.222;2022-11-15T10:32:44;14.90;80.30
29345;DHT22;16339;48.748;2.222;2022-11-15T10:35:23;14.90;80.30
29345;DHT22;16339;48.748;2.222;2022-11-15T10:37:52;14.90;80.50
29345;DHT22;16339;48.748;2.222;2022-11-15T10:40:27;15.00;80.50
29345;DHT22;16339;48.748;2.222;2022-11-15T10:43:05;14.90;80.40
29345;DHT22;16339;48.748;2.222;2022-11-15T10:45:34;14.90;80.50
29345;DHT22;16339;48.748;2.222;2022-11-15T10:48:21;14.90;80.50
29345;DHT22;16339;48.748;2.222;2022-11-15T10:50:52;14.90;80.80
29345;DHT22;16339;48.748;2.222;2022-11-15T10:53:25;14.90;80.80
29345;DHT22;16339;48.748;2.222;2022-11-15T10:56:04;14.90;81.10
29345;DHT22;16339;48.748;2.222;2022-11-15T10:58:37;14.90;81.20
29345;DHT22;16339;48.748;2.222;2022-11-15T11:01:16;14.90;81.20
29345;DHT22;16339;48.748;2.222;2022-11-15T11:03:58;14.90;81.30
29345;DHT22;16339;48.748;2.222;2022-11-15T11:06:27;14.90;81.50
29345;DHT22;16339;48.748;2.222;2022-11-15T11:08:58;14.90;81.30
29345;DHT22;16339;48.748;2.222;2022-11-15T11:11:45;14.90;81.50
29345;DHT22;16339;48.748;2.222;2022-11-15T11:14:20;14.90;81.80
29345;DHT22;16339;48.748;2.222;2022-11-15T11:16:53;14.90;81.80
29345;DHT22;16339;48.748;2.222;2022-11-15T11:22:23;14.90;81.90
29345;DHT22;16339;48.748;2.222;2022-11-15T11:25:03;14.90;81.90
29345;DHT22;16339;48.748;2.222;2022-11-15T11:27:43;14.90;82.10
29345;DHT22;16339;48.748;2.222;2022-11-15T11:30:18;14.90;82.10
29345;DHT22;16339;48.748;2.222;2022-11-15T11:33:13;14.90;82.10
29345;DHT22;16339;48.748;2.222;2022-11-15T11:35:54;14.90;82.50
29345;DHT22;16339;48.748;2.222;2022-11-15T11:38:38;14.90;82.30
29345;DHT22;16339;48.748;2.222;2022-11-15T11:41:16;14.80;82.50
29345;DHT22;16339;48.748;2.222;2022-11-15T11:43:58;14.80;82.60
29345;DHT22;16339;48.748;2.222;2022-11-15T11:46:45;14.90;82.80
29345;DHT22;16339;48.748;2.222;2022-11-15T11:49:20;14.90;82.90
29345;DHT22;16339;48.748;2.222;2022-11-15T11:51:54;14.80;82.90
29345;DHT22;16339;48.748;2.222;2022-11-15T11:54:34;14.90;83.10
29345;DHT22;16339;48.748;2.222;2022-11-15T11:57:05;14.90;83.10
29345;DHT22;16339;48.748;2.222;2022-11-15T11:59:42;14.90;83.20
29345;DHT22;16339;48.748;2.222;2022-11-15T12:02:16;14.90;83.30
29345;DHT22;16339;48.748;2.222;2022-11-15T12:04:50;14.90;83.20
29345;DHT22;16339;48.748;2.222;2022-11-15T12:07:23;14.90;83.30
29345;DHT22;16339;48.748;2.222;2022-11-15T12:09:58;14.90;83.40
29345;DHT22;16339;48.748;2.222;2022-11-15T12:12:31;14.90;83.60
29345;DHT22;16339;48.748;2.222;2022-11-15T12:15:12;14.90;83.70
29345;DHT22;16339;48.748;2.222;2022-11-15T12:17:45;14.90;83.80
29345;DHT22;16339;48.748;2.222;2022-11-15T12:20:17;14.90;84.00
29345;DHT22;16339;48.748;2.222;2022-11-15T12:22:51;14.90;84.10
29345;DHT22;16339;48.748;2.222;2022-11-15T12:25:24;15.00;84.20
29345;DHT22;16339;48.748;2.222;2022-11-15T12:27:57;15.10;84.30
29345;DHT22;16339;48.748;2.222;2022-11-15T12:30:41;15.10;84.20
29345;DHT22;16339;48.748;2.222;2022-11-15T12:33:32;15.10;84.40
29345;DHT22;16339;48.748;2.222;2022-11-15T12:36:04;15.20;84.40
29345;DHT22;16339;48.748;2.222;2022-11-15T12:38:55;15.20;84.10
29345;DHT22;16339;48.748;2.222;2022-11-15T12:41:26;15.30;84.20
29345;DHT22;16339;48.748;2.222;2022-11-15T12:43:56;15.20;84.00
29345;DHT22;16339;48.748;2.222;2022-11-15T12:49:52;15.20;84.20
29345;DHT22;16339;48.748;2.222;2022-11-15T12:52:21;15.20;85.00
29345;DHT22;16339;48.748;2.222;2022-11-15T12:54:55;15.30;84.00
29345;DHT22;16339;48.748;2.222;2022-11-15T12:57:35;15.30;84.20
29345;DHT22;16339;48.748;2.222;2022-11-15T13:03:28;15.40;84.20
29345;DHT22;16339;48.748;2.222;2022-11-15T13:06:09;15.40;84.00
29345;DHT22;16339;48.748;2.222;2022-11-15T13:08:58;15.40;84.10
29345;DHT22;16339;48.748;2.222;2022-11-15T13:11:44;15.50;83.90
29345;DHT22;16339;48.748;2.222;2022-11-15T13:14:44;15.40;84.20
29345;DHT22;16339;48.748;2.222;2022-11-15T13:17:33;15.50;84.30
29345;DHT22;16339;48.748;2.222;2022-11-15T13:20:21;15.50;84.20
29345;DHT22;16339;48.748;2.222;2022-11-15T13:23:00;15.50;84.10
29345;DHT22;16339;48.748;2.222;2022-11-15T13:25:48;15.50;83.90
29345;DHT22;16339;48.748;2.222;2022-11-15T13:28:24;15.50;83.90
29345;DHT22;16339;48.748;2.222;2022-11-15T13:30:56;15.50;83.80
29345;DHT22;16339;48.748;2.222;2022-11-15T13:33:31;15.50;83.80
29345;DHT22;16339;48.748;2.222;2022-11-15T13:36:03;15.50;83.90
29345;DHT22;16339;48.748;2.222;2022-11-15T13:38:36;15.50;84.10
29345;DHT22;16339;48.748;2.222;2022-11-15T13:41:17;15.50;84.10
29345;DHT22;16339;48.748;2.222;2022-11-15T13:43:47;15.50;84.10
29345;DHT22;16339;48.748;2.222;2022-11-15T13:46:17;15.50;84.20
29345;DHT22;16339;48.748;2.222;2022-11-15T13:48:50;15.50;84.10
29345;DHT22;16339;48.748;2.222;2022-11-15T13:51:23;15.50;84.10
29345;DHT22;16339;48.748;2.222;2022-11-15T13:53:57;15.50;84.10
29345;DHT22;16339;48.748;2.222;2022-11-15T13:56:27;15.50;84.10
29345;DHT22;16339;48.748;2.222;2022-11-15T13:58:57;15.40;84.30
29345;DHT22;16339;48.748;2.222;2022-11-15T14:01:28;15.50;84.40
29345;DHT22;16339;48.748;2.222;2022-11-15T14:04:00;15.40;84.40
29345;DHT22;16339;48.748;2.222;2022-11-15T14:06:30;15.50;84.50
29345;DHT22;16339;48.748;2.222;2022-11-15T14:09:33;15.50;84.70
29345;DHT22;16339;48.748;2.222;2022-11-15T14:14:46;15.40;84.90
29345;DHT22;16339;48.748;2.222;2022-11-15T14:17:20;15.40;85.00
29345;DHT22;16339;48.748;2.222;2022-11-15T14:19:49;15.40;85.10
29345;DHT22;16339;48.748;2.222;2022-11-15T14:22:20;15.50;85.00
29345;DHT22;16339;48.748;2.222;2022-11-15T14:25:14;15.50;85.10
29345;DHT22;16339;48.748;2.222;2022-11-15T14:28:07;15.40;85.20
29345;DHT22;16339;48.748;2.222;2022-11-15T14:30:36;15.50;85.00
29345;DHT22;16339;48.748;2.222;2022-11-15T14:33:18;15.50;85.00
29345;DHT22;16339;48.748;2.222;2022-11-15T14:35:48;15.40;85.00
29345;DHT22;16339;48.748;2.222;2022-11-15T14:38:17;15.50;85.00
29345;DHT22;16339;48.748;2.222;2022-11-15T14:40:45;15.50;85.00
29345;DHT22;16339;48.748;2.222;2022-11-15T14:43:14;15.50;85.00
29345;DHT22;16339;48.748;2.222;2022-11-15T14:45:45;15.50;85.10
29345;DHT22;16339;48.748;2.222;2022-11-15T14:48:14;15.40;85.10
29345;DHT22;16339;48.748;2.222;2022-11-15T14:50:43;15.50;85.30
29345;DHT22;16339;48.748;2.222;2022-11-15T14:53:13;15.40;85.10
29345;DHT22;16339;48.748;2.222;2022-11-15T14:55:43;15.40;85.50
29345;DHT22;16339;48.748;2.222;2022-11-15T14:58:12;15.40;85.80
29345;DHT22;16339;48.748;2.222;2022-11-15T15:00:41;15.40;85.90
29345;DHT22;16339;48.748;2.222;2022-11-15T15:03:12;15.40;86.00
29345;DHT22;16339;48.748;2.222;2022-11-15T15:05:44;15.40;86.00
29345;DHT22;16339;48.748;2.222;2022-11-15T15:08:13;15.40;86.00
29345;DHT22;16339;48.748;2.222;2022-11-15T15:10:44;15.40;86.10
29345;DHT22;16339;48.748;2.222;2022-11-15T15:13:16;15.50;86.10
29345;DHT22;16339;48.748;2.222;2022-11-15T15:15:46;15.40;86.10
29345;DHT22;16339;48.748;2.222;2022-11-15T15:18:18;15.50;86.10
29345;DHT22;16339;48.748;2.222;2022-11-15T15:20:54;15.50;86.20
29345;DHT22;16339;48.748;2.222;2022-11-15T15:23:25;15.50;86.20
29345;DHT22;16339;48.748;2.222;2022-11-15T15:25:56;15.50;86.10
29345;DHT22;16339;48.748;2.222;2022-11-15T15:28:25;15.50;86.10
29345;DHT22;16339;48.748;2.222;2022-11-15T15:30:56;15.50;86.10
29345;DHT22;16339;48.748;2.222;2022-11-15T15:33:27;15.50;86.20
29345;DHT22;16339;48.748;2.222;2022-11-15T15:35:56;15.50;86.30
29345;DHT22;16339;48.748;2.222;2022-11-15T15:38:25;15.50;86.30
29345;DHT22;16339;48.748;2.222;2022-11-15T15:40:54;15.50;86.30
29345;DHT22;16339;48.748;2.222;2022-11-15T15:43:25;15.50;86.20
29345;DHT22;16339;48.748;2.222;2022-11-15T15:45:53;15.50;86.30
29345;DHT22;16339;48.748;2.222;2022-11-15T15:48:22;15.50;87.10
29345;DHT22;16339;48.748;2.222;2022-11-15T15:50:53;15.50;86.20
29345;DHT22;16339;48.748;2.222;2022-11-15T15:53:22;15.50;86.30
29345;DHT22;16339;48.748;2.222;2022-11-15T15:55:51;15.50;86.30
29345;DHT22;16339;48.748;2.222;2022-11-15T15:58:19;15.50;86.30
29345;DHT22;16339;48.748;2.222;2022-11-15T16:00:48;15.40;87.30
29345;DHT22;16339;48.748;2.222;2022-11-15T16:03:17;15.30;87.30
29345;DHT22;16339;48.748;2.222;2022-11-15T16:05:45;15.30;87.50
29345;DHT22;16339;48.748;2.222;2022-11-15T16:08:21;15.40;88.10
29345;DHT22;16339;48.748;2.222;2022-11-15T16:10:50;15.40;87.10
29345;DHT22;16339;48.748;2.222;2022-11-15T16:13:19;15.50;86.90
29345;DHT22;16339;48.748;2.222;2022-11-15T16:15:53;15.50;86.80
29345;DHT22;16339;48.748;2.222;2022-11-15T16:18:22;15.50;86.70
29345;DHT22;16339;48.748;2.222;2022-11-15T16:20:51;15.50;87.50
29345;DHT22;16339;48.748;2.222;2022-11-15T16:23:24;15.50;86.70